Time;durP1;ratioP1;P1;durP2;ratioP2;P2;SDS_P1;SDS_P2;PMS_P1;PMS_P2;Temp;Humidity;BMP_temperature;BMP_pressure;BME280_temperature;BME280_humidity;BME280_pressure;Samples;Min_cycle;Max_cycle;Signal;HPM_P1;HPM_P2
2022/05/24 00:00:16;;;;;;;7.45;3.30;;;;;;;15.92;54.00;91746.78;5013018;28;20032;-77
2022/05/24 00:02:42;;;;;;;6.88;3.50;;;;;;;15.93;54.43;91750.97;4995471;28;20129;-77
2022/05/24 00:05:12;;;;;;;6.45;3.25;;;;;;;15.92;54.39;91744.94;5011841;28;20038;-77
2022/05/24 00:07:39;;;;;;;8.40;3.15;;;;;;;15.90;54.86;91741.84;4995445;28;20049;-76
2022/05/24 00:10:08;;;;;;;9.82;3.42;;;;;;;15.91;55.00;91743.38;4995689;28;20041;-77
2022/05/24 00:12:34;;;;;;;5.72;2.90;;;;;;;15.93;54.27;91737.78;4995198;28;20542;-77
2022/05/24 00:17:47;;;;;;;6.53;3.08;;;;;;;15.92;53.59;91739.66;4995327;28;20052;-77
2022/05/24 00:20:13;;;;;;;8.63;3.45;;;;;;;15.94;53.08;91737.44;4994579;28;20029;-77
2022/05/24 00:22:40;;;;;;;8.85;3.03;;;;;;;15.95;53.49;91735.56;4995458;28;20419;-77
2022/05/24 00:25:06;;;;;;;5.30;2.63;;;;;;;15.92;53.39;91742.28;4994685;28;20033;-77
2022/05/24 00:27:31;;;;;;;7.57;3.10;;;;;;;15.92;53.54;91738.88;4973429;28;20121;-77
2022/05/24 00:29:57;;;;;;;9.80;3.00;;;;;;;15.91;53.50;91738.09;4959740;28;20128;-77
2022/05/24 00:32:23;;;;;;;5.53;2.72;;;;;;;15.91;53.85;91737.34;4993080;28;20089;-77
2022/05/24 00:34:49;;;;;;;7.47;2.95;;;;;;;15.91;54.10;91732.06;4993258;28;20062;-77
2022/05/24 00:37:19;;;;;;;6.38;2.95;;;;;;;15.91;53.55;91735.47;4994743;28;20119;-77
2022/05/24 00:39:46;;;;;;;10.82;3.15;;;;;;;15.89;53.19;91729.75;4995102;28;20073;-76
2022/05/24 00:42:19;;;;;;;10.80;3.33;;;;;;;15.86;53.53;91738.34;4994997;28;20377;-77
2022/05/24 00:45:07;;;;;;;6.05;2.65;;;;;;;15.86;53.79;91734.94;5011469;28;20037;-77
2022/05/24 00:47:50;;;;;;;8.25;2.95;;;;;;;15.87;53.07;91734.59;5006189;28;20442;-76
2022/05/24 00:50:24;;;;;;;10.60;2.92;;;;;;;15.87;52.55;91749.66;4993146;28;20038;-77
2022/05/24 00:52:53;;;;;;;7.35;2.83;;;;;;;15.88;52.66;91743.31;4974955;28;20041;-76
2022/05/24 00:55:22;;;;;;;7.38;2.50;;;;;;;15.88;52.75;91749.34;4992871;28;20439;-77
2022/05/24 00:58:25;;;;;;;5.40;2.80;;;;;;;15.89;52.98;91745.59;4981242;28;20042;-76
2022/05/24 01:00:52;;;;;;;4.63;2.30;;;;;;;15.88;52.57;91751.22;5010871;28;20034;-77
2022/05/24 01:03:18;;;;;;;5.45;2.90;;;;;;;15.88;52.72;91748.56;5011834;28;20038;-77
2022/05/24 01:05:44;;;;;;;6.25;3.03;;;;;;;15.88;51.60;91738.78;4995014;28;20435;-77
2022/05/24 01:08:13;;;;;;;6.60;2.40;;;;;;;15.87;50.79;91742.50;4987717;28;20041;-76
2022/05/24 01:10:50;;;;;;;6.03;2.72;;;;;;;15.90;51.28;91749.78;4992596;28;20046;-77
2022/05/24 01:13:27;;;;;;;11.73;2.60;;;;;;;15.91;51.71;91742.63;4975445;28;20038;-76
2022/05/24 01:15:53;;;;;;;5.03;2.55;;;;;;;15.89;51.67;91737.66;4975120;28;20080;-77
2022/05/24 01:18:21;;;;;;;5.05;2.70;;;;;;;15.90;51.44;91733.94;5000588;28;20018;-77
2022/05/24 01:20:54;;;;;;;6.35;2.50;;;;;;;15.91;51.40;91734.69;4979845;28;20050;-77
2022/05/24 01:23:53;;;;;;;4.45;2.45;;;;;;;15.90;51.04;91731.31;4995962;28;20071;-77
2022/05/24 01:26:54;;;;;;;8.15;2.60;;;;;;;15.89;51.01;91729.00;4982087;28;20279;-76
2022/05/24 01:29:24;;;;;;;6.28;2.70;;;;;;;15.88;50.73;91720.31;5006775;28;20033;-76
2022/05/24 01:37:28;;;;;;;4.97;2.70;;;;;;;15.93;49.81;91712.13;4997636;28;20577;-77
2022/05/24 01:39:57;;;;;;;8.82;2.70;;;;;;;16.10;49.16;91718.22;5012447;28;20059;-77
2022/05/24 01:42:25;;;;;;;10.93;3.15;;;;;;;16.02;50.80;91709.34;5015611;28;20077;-76
2022/05/24 01:45:14;;;;;;;8.02;2.90;;;;;;;15.95;52.10;91707.28;4997269;28;20037;-76
2022/05/24 01:47:43;;;;;;;6.68;2.88;;;;;;;15.88;52.82;91707.13;5005715;28;20034;-77
2022/05/24 01:50:15;;;;;;;7.03;2.85;;;;;;;15.81;53.77;91712.22;4997137;28;20039;-75
2022/05/24 01:52:49;;;;;;;9.18;2.97;;;;;;;15.77;53.61;91711.34;4987520;28;20033;-77
2022/05/24 01:55:22;;;;;;;6.88;2.90;;;;;;;15.71;53.72;91717.94;5015382;28;20069;-76
2022/05/24 01:57:55;;;;;;;7.57;2.67;;;;;;;15.65;53.63;91716.63;4997765;28;20069;-76
2022/05/24 02:00:21;;;;;;;6.28;2.80;;;;;;;15.62;53.63;91718.81;5008782;28;20400;-75
2022/05/24 02:02:48;;;;;;;8.80;2.55;;;;;;;15.58;53.62;91720.63;4977989;28;20114;-77
2022/05/24 02:05:27;;;;;;;8.27;2.88;;;;;;;15.56;53.31;91725.47;4978797;28;20046;-78
2022/05/24 02:07:52;;;;;;;7.35;2.65;;;;;;;15.54;53.53;91724.25;4994633;28;20089;-75
2022/05/24 02:10:18;;;;;;;4.60;2.60;;;;;;;15.51;53.68;91730.94;4984128;28;20038;-77
2022/05/24 02:12:49;;;;;;;5.18;2.38;;;;;;;15.50;53.71;91729.44;5014184;28;20108;-75
2022/05/24 02:15:21;;;;;;;7.15;2.88;;;;;;;15.48;54.63;91726.34;5013819;28;20080;-75
2022/05/24 02:17:59;;;;;;;6.65;2.67;;;;;;;15.48;54.33;91726.34;4996266;28;20034;-75
2022/05/24 02:20:30;;;;;;;6.43;2.63;;;;;;;15.48;54.67;91729.00;5009744;28;20026;-75
2022/05/24 02:22:56;;;;;;;9.47;3.00;;;;;;;15.49;55.55;91733.19;4976804;28;20038;-76
2022/05/24 02:25:44;;;;;;;5.13;2.92;;;;;;;15.47;55.57;91729.31;4976783;28;20400;-77
2022/05/24 02:28:12;;;;;;;8.45;2.65;;;;;;;15.48;55.59;91733.50;4992508;28;20065;-79
2022/05/24 02:30:45;;;;;;;7.60;3.10;;;;;;;15.47;55.79;91739.88;5012302;28;20029;-77
2022/05/24 02:33:11;;;;;;;7.07;3.03;;;;;;;15.46;56.15;91741.75;4995664;28;20033;-78
2022/05/24 02:35:37;;;;;;;7.13;3.25;;;;;;;15.46;56.44;91735.72;5015135;28;20037;-78
2022/05/24 02:38:03;;;;;;;5.78;3.00;;;;;;;15.45;56.49;91742.84;5013846;28;20596;-78
2022/05/24 02:43:13;;;;;;;6.50;2.67;;;;;;;15.47;56.68;91740.66;4994529;28;20034;-75
2022/05/24 02:45:38;;;;;;;6.90;2.70;;;;;;;15.46;56.75;91741.75;4977650;28;20031;-77
2022/05/24 02:48:04;;;;;;;8.02;3.60;;;;;;;15.47;57.18;91745.94;4978289;28;20069;-77
2022/05/24 02:50:30;;;;;;;7.40;2.88;;;;;;;15.47;57.40;91727.47;4977757;28;20046;-78
2022/05/24 02:52:56;;;;;;;5.85;2.90;;;;;;;15.47;57.91;91729.31;4961513;28;20458;-78
2022/05/24 02:55:23;;;;;;;7.82;2.95;;;;;;;15.48;58.33;91733.50;4996274;28;20084;-78
2022/05/24 02:57:49;;;;;;;5.15;3.00;;;;;;;15.44;58.71;91722.84;4994139;28;20034;-78
2022/05/24 03:00:19;;;;;;;9.52;2.97;;;;;;;15.43;58.49;91741.66;4977542;28;20053;-78
2022/05/24 03:02:45;;;;;;;6.70;3.13;;;;;;;15.41;58.48;91740.09;4996025;28;20520;-77
2022/05/24 03:05:13;;;;;;;7.47;2.85;;;;;;;15.41;58.38;91736.72;4978061;28;20030;-77
2022/05/24 03:10:24;;;;;;;6.30;2.90;;;;;;;15.36;58.61;91752.78;4979933;28;20050;-77
2022/05/24 03:15:34;;;;;;;4.82;2.60;;;;;;;15.36;59.08;91752.78;4993363;28;20066;-76
2022/05/24 03:18:00;;;;;;;5.38;2.88;;;;;;;15.35;59.18;91761.75;4993088;28;20141;-76
2022/05/24 03:20:26;;;;;;;6.93;3.00;;;;;;;15.35;59.69;91759.13;4993064;28;20488;-75
2022/05/24 03:22:52;;;;;;;9.77;3.10;;;;;;;15.35;59.85;91757.25;4975409;28;20034;-75
2022/05/24 03:25:19;;;;;;;8.05;2.90;;;;;;;15.35;60.23;91748.56;4992938;28;20053;-76
2022/05/24 03:27:49;;;;;;;9.52;3.03;;;;;;;15.34;60.15;91742.53;5016526;28;20034;-76
2022/05/24 03:30:15;;;;;;;7.63;3.05;;;;;;;15.35;59.92;91748.56;5016420;28;20029;-77
2022/05/24 03:32:41;;;;;;;8.13;3.15;;;;;;;15.33;60.37;91748.94;5025456;28;20476;-77
2022/05/24 03:35:11;;;;;;;7.05;3.20;;;;;;;15.34;60.60;91744.41;4994659;28;20040;-77
2022/05/24 03:37:38;;;;;;;7.97;3.20;;;;;;;15.35;60.05;91749.34;4995649;28;20052;-77
2022/05/24 03:40:05;;;;;;;7.07;2.90;;;;;;;15.34;60.41;91752.34;4979380;28;20054;-78
2022/05/24 03:42:30;;;;;;;9.05;3.13;;;;;;;15.34;60.30;91755.72;4995934;28;20094;-77
2022/05/24 03:44:56;;;;;;;9.23;2.90;;;;;;;15.34;60.13;91757.59;4995318;28;20077;-77
2022/05/24 03:47:22;;;;;;;11.18;3.05;;;;;;;15.35;59.91;91756.50;4975564;28;20467;-77
2022/05/24 03:49:47;;;;;;;10.13;3.05;;;;;;;15.34;60.23;91752.34;4993834;28;20081;-77
2022/05/24 03:52:13;;;;;;;9.02;2.90;;;;;;;15.34;60.06;91747.06;4993606;28;20046;-76
2022/05/24 03:54:39;;;;;;;7.55;3.10;;;;;;;15.32;60.39;91746.63;4993544;28;20038;-77
2022/05/24 03:59:49;;;;;;;6.80;3.00;;;;;;;15.30;61.12;91759.38;4994111;28;20110;-77
2022/05/24 04:02:15;;;;;;;8.73;3.10;;;;;;;15.28;61.03;91762.31;4983154;28;20053;-77
2022/05/24 04:04:41;;;;;;;10.88;3.28;;;;;;;15.27;60.98;91757.41;4995424;28;20491;-77
2022/05/24 04:07:08;;;;;;;8.70;3.10;;;;;;;15.28;61.21;91764.19;4977522;28;20030;-75
2022/05/24 04:09:34;;;;;;;5.95;2.83;;;;;;;15.26;61.19;91766.41;4995319;28;20034;-77
2022/05/24 04:12:00;;;;;;;9.40;3.00;;;;;;;15.26;61.32;91776.94;5012226;28;20050;-77
2022/05/24 04:14:29;;;;;;;9.02;3.20;;;;;;;15.25;61.85;91775.41;4995505;28;20068;-77
2022/05/24 04:16:55;;;;;;;8.43;3.17;;;;;;;15.27;61.14;91775.84;5000161;28;20066;-77
2022/05/24 04:19:21;;;;;;;8.00;3.08;;;;;;;15.27;61.47;91781.91;4959905;28;20026;-77
2022/05/24 04:21:47;;;;;;;8.68;3.85;;;;;;;15.28;61.66;91785.28;4968748;28;20044;-77
2022/05/24 04:24:13;;;;;;;7.65;3.65;;;;;;;15.28;61.56;91786.06;4995507;28;20403;-77
2022/05/24 04:26:40;;;;;;;7.80;3.50;;;;;;;15.30;61.54;91788.38;5011765;28;20033;-77
2022/05/24 04:29:06;;;;;;;8.40;3.78;;;;;;;15.31;61.78;91795.97;5002795;28;20037;-77
2022/05/24 04:31:31;;;;;;;11.27;4.05;;;;;;;15.33;62.30;91798.25;4992221;28;20408;-77
2022/05/24 04:33:57;;;;;;;8.50;3.10;;;;;;;15.32;62.79;91802.00;4973868;28;20500;-77
2022/05/24 04:36:22;;;;;;;7.18;3.28;;;;;;;15.35;63.11;91801.31;5008588;28;20029;-77
2022/05/24 04:38:48;;;;;;;6.03;3.20;;;;;;;15.36;63.10;91802.88;5003546;28;20500;-77
2022/05/24 04:43:58;;;;;;;10.18;3.38;;;;;;;15.42;64.55;91796.25;5009049;28;20046;-77
2022/05/24 04:46:24;;;;;;;10.82;3.60;;;;;;;15.43;65.13;91803.06;4999582;28;20034;-77
2022/05/24 04:48:49;;;;;;;7.68;3.53;;;;;;;15.44;65.03;91799.31;4991841;28;20068;-77
2022/05/24 04:51:15;;;;;;;7.70;3.38;;;;;;;15.50;66.19;91805.91;4977664;28;20045;-77
2022/05/24 04:53:41;;;;;;;12.88;4.10;;;;;;;15.56;66.30;91811.75;5011321;28;20037;-75
2022/05/24 04:56:07;;;;;;;8.00;3.75;;;;;;;15.57;66.77;91811.41;5007049;28;20048;-77
2022/05/24 04:58:33;;;;;;;8.40;3.72;;;;;;;15.57;65.86;91808.75;4988783;28;20117;-77
2022/05/24 05:00:58;;;;;;;8.32;3.33;;;;;;;15.56;65.77;91809.88;4956742;28;20095;-76
2022/05/24 05:03:24;;;;;;;7.78;3.80;;;;;;;15.58;65.98;91812.94;4991047;28;20038;-76
2022/05/24 05:05:52;;;;;;;10.80;3.60;;;;;;;15.58;66.05;91812.94;5010871;28;20492;-77
2022/05/24 05:08:19;;;;;;;9.10;3.70;;;;;;;15.58;67.08;91823.50;5009679;28;20037;-76
2022/05/24 05:10:45;;;;;;;9.10;3.58;;;;;;;15.60;67.13;91823.94;4990680;28;20518;-76
2022/05/24 05:13:15;;;;;;;9.00;3.40;;;;;;;15.60;67.07;91813.38;4974771;28;20050;-76
2022/05/24 05:15:41;;;;;;;11.88;3.80;;;;;;;15.64;67.15;91812.72;4991474;28;20043;-76
2022/05/24 05:18:09;;;;;;;7.82;3.70;;;;;;;15.70;67.38;91816.66;4991325;28;20523;-76
2022/05/24 05:20:39;;;;;;;14.05;4.15;;;;;;;15.73;67.95;91814.13;5001902;28;20092;-75
2022/05/24 05:23:14;;;;;;;9.52;4.72;;;;;;;15.80;67.70;91818.84;4978919;28;20034;-77
2022/05/24 05:25:41;;;;;;;9.27;4.20;;;;;;;15.86;68.60;91817.53;4989348;28;20038;-77
2022/05/24 05:28:08;;;;;;;10.45;3.95;;;;;;;15.89;68.56;91819.47;4997019;28;20539;-77
2022/05/24 05:33:18;;;;;;;9.68;3.85;;;;;;;16.00;69.08;91812.63;4992023;28;20440;-78
2022/05/24 05:35:46;;;;;;;17.75;4.30;;;;;;;16.07;69.04;91811.28;5001518;28;20399;-77
2022/05/24 05:38:12;;;;;;;8.88;4.65;;;;;;;16.13;69.81;91804.69;4981976;28;20046;-77
2022/05/24 05:40:39;;;;;;;7.72;4.07;;;;;;;16.22;69.74;91810.56;4999635;28;20548;-77
2022/05/24 05:43:05;;;;;;;14.70;4.18;;;;;;;16.30;68.68;91814.94;5006369;28;20034;-77
2022/05/24 05:45:30;;;;;;;8.50;4.45;;;;;;;16.37;68.76;91817.78;4994007;28;20074;-77
2022/05/24 05:47:56;;;;;;;11.73;4.47;;;;;;;16.42;68.50;91812.25;5011032;28;20487;-77
2022/05/24 05:50:24;;;;;;;7.30;3.92;;;;;;;16.49;68.53;91811.66;4991917;28;20030;-77
2022/05/24 05:52:52;;;;;;;9.68;4.20;;;;;;;16.55;67.53;91820.09;4977676;28;20038;-77
2022/05/24 05:55:21;;;;;;;10.00;4.63;;;;;;;16.58;67.04;91822.81;4990122;28;20049;-77
2022/05/24 05:57:47;;;;;;;10.90;4.35;;;;;;;16.63;66.67;91821.81;4992030;28;20054;-77
2022/05/24 06:00:14;;;;;;;9.88;4.30;;;;;;;16.67;66.61;91822.69;4977690;28;20049;-76
2022/05/24 06:02:46;;;;;;;9.80;4.57;;;;;;;16.74;66.54;91827.38;5002240;28;20042;-77
2022/05/24 06:05:13;;;;;;;11.20;4.50;;;;;;;16.73;65.98;91829.25;5004915;28;20048;-77
2022/05/24 06:07:38;;;;;;;14.02;4.53;;;;;;;16.77;67.07;91829.31;5000604;28;20060;-77
2022/05/24 06:10:07;;;;;;;12.18;4.20;;;;;;;16.80;66.00;91829.47;5024538;28;20487;-77
2022/05/24 06:12:33;;;;;;;9.40;4.18;;;;;;;16.88;65.59;91834.91;5013967;28;20057;-77
2022/05/24 06:14:59;;;;;;;11.50;4.30;;;;;;;16.91;66.56;91842.94;4992318;28;20776;-76
2022/05/24 06:17:25;;;;;;;11.45;4.82;;;;;;;16.97;67.57;91832.88;4992472;28;20048;-77
2022/05/24 06:19:51;;;;;;;11.30;4.70;;;;;;;17.02;67.60;91837.88;5008839;28;20037;-77
2022/05/24 06:22:17;;;;;;;8.85;4.47;;;;;;;17.01;68.68;91831.09;5010416;28;20041;-77
2022/05/24 06:24:44;;;;;;;9.13;4.05;;;;;;;17.01;68.53;91837.13;4990863;28;20041;-77
2022/05/24 06:27:10;;;;;;;8.85;4.40;;;;;;;17.02;67.32;91837.88;5010376;28;20044;-77
2022/05/24 06:29:36;;;;;;;9.77;4.47;;;;;;;16.95;68.65;91840.38;5012783;28;20034;-76
2022/05/24 06:32:03;;;;;;;10.85;4.88;;;;;;;16.98;67.68;91842.34;5010048;28;20462;-76
2022/05/24 06:34:32;;;;;;;9.48;4.50;;;;;;;16.98;67.61;91829.13;5004079;28;20038;-77
2022/05/24 06:36:58;;;;;;;11.85;5.20;;;;;;;17.08;67.04;91833.13;5004130;28;20129;-77
2022/05/24 06:39:24;;;;;;;12.02;4.57;;;;;;;17.19;63.73;91834.91;5006250;28;20503;-77
2022/05/24 06:41:50;;;;;;;15.77;4.45;;;;;;;17.18;63.64;91827.31;4995891;28;20516;-77
2022/05/24 06:44:16;;;;;;;8.23;4.32;;;;;;;17.27;63.46;91826.03;4980622;28;20049;-77
2022/05/24 06:46:41;;;;;;;10.65;4.93;;;;;;;17.39;62.90;91821.75;4996241;28;20236;-76
2022/05/24 06:49:08;;;;;;;12.43;4.72;;;;;;;17.41;62.88;91819.53;4992821;28;20034;-77
2022/05/24 06:51:34;;;;;;;10.93;4.38;;;;;;;17.47;63.53;91820.78;4995185;28;20049;-77
2022/05/24 06:53:59;;;;;;;12.88;5.05;;;;;;;17.54;63.68;91820.19;5005533;28;20049;-77
2022/05/24 06:56:25;;;;;;;11.38;5.07;;;;;;;17.65;64.33;91824.63;4999617;28;20029;-77
2022/05/24 07:02:25;;;;;;;9.65;4.55;;;;;;;17.72;62.61;91821.34;4977082;28;20042;-77
2022/05/24 07:04:25;;;;;;;10.73;4.40;;;;;;;17.61;63.41;91825.66;5010441;28;20032;-77
2022/05/24 07:06:51;;;;;;;11.25;4.70;;;;;;;17.59;63.25;91827.88;4994026;28;20025;-75
2022/05/24 07:09:16;;;;;;;11.85;4.47;;;;;;;17.56;63.68;91826.69;5014181;28;20053;-77
2022/05/24 07:11:43;;;;;;;13.43;4.63;;;;;;;17.42;63.09;91834.28;4990206;28;20088;-77
2022/05/24 07:14:08;;;;;;;12.45;5.05;;;;;;;17.50;64.01;91825.41;4996665;28;20030;-77
2022/05/24 07:16:34;;;;;;;10.00;4.60;;;;;;;17.54;63.95;91828.13;5013411;28;20093;-77
2022/05/24 07:19:00;;;;;;;9.65;4.60;;;;;;;17.52;65.23;91828.47;5006778;28;20038;-77
2022/05/24 07:21:25;;;;;;;11.60;4.60;;;;;;;17.63;65.46;91834.78;5014255;28;20030;-77
2022/05/24 07:23:52;;;;;;;11.20;5.20;;;;;;;17.71;66.21;91838.34;4995936;28;20120;-77
2022/05/24 07:26:23;;;;;;;11.65;5.50;;;;;;;17.82;67.14;91833.31;5001155;28;20562;-77
2022/05/24 07:28:48;;;;;;;12.82;5.38;;;;;;;17.93;67.43;91841.47;5007944;28;20033;-77
2022/05/24 07:31:14;;;;;;;16.13;5.95;;;;;;;17.99;66.42;91842.72;4995469;28;20538;-77
2022/05/24 07:33:39;;;;;;;14.00;5.38;;;;;;;18.06;65.63;91843.63;5012446;28;20048;-77
2022/05/24 07:36:06;;;;;;;10.80;5.32;;;;;;;18.09;64.27;91837.63;4996207;28;20046;-77
2022/05/24 07:38:32;;;;;;;14.80;5.80;;;;;;;18.20;65.22;91842.41;4989416;28;20100;-77
2022/05/24 07:46:27;;;;;;;18.10;5.78;;;;;;;18.62;63.68;91842.44;5014430;28;20050;-77
2022/05/24 07:48:54;;;;;;;11.85;6.18;;;;;;;18.62;63.67;91839.00;4979061;28;20030;-78
2022/05/24 07:51:19;;;;;;;14.07;5.80;;;;;;;18.64;63.41;91834.91;5006951;28;20034;-77
2022/05/24 07:53:45;;;;;;;12.50;6.32;;;;;;;18.70;62.78;91838.03;5014733;28;20053;-77
2022/05/24 07:56:13;;;;;;;13.30;5.80;;;;;;;18.87;62.83;91842.91;4986800;28;20034;-78
2022/05/24 07:58:39;;;;;;;14.00;5.72;;;;;;;19.01;61.83;91838.97;5013736;28;20030;-78
2022/05/24 08:01:04;;;;;;;11.45;5.82;;;;;;;19.06;61.26;91843.97;5004899;28;20538;-77
2022/05/24 08:03:30;;;;;;;17.92;6.88;;;;;;;19.08;59.99;91844.38;5013149;28;20042;-77
2022/05/24 08:05:55;;;;;;;16.17;6.75;;;;;;;18.87;65.41;91842.91;5013601;28;20120;-78
2022/05/24 08:08:22;;;;;;;16.17;6.40;;;;;;;18.46;67.57;91839.09;4994914;28;20037;-79
2022/05/24 08:10:48;;;;;;;16.88;7.28;;;;;;;18.29;68.16;91842.94;4988867;28;20030;-77
2022/05/24 08:13:19;;;;;;;17.23;7.03;;;;;;;18.26;69.17;91840.97;4997205;28;20044;-77
2022/05/24 08:15:46;;;;;;;20.90;7.43;;;;;;;18.21;68.88;91833.31;4993099;28;20041;-77
2022/05/24 08:18:12;;;;;;;21.65;7.15;;;;;;;18.13;68.25;91836.97;5003926;28;20392;-77
2022/05/24 08:20:39;;;;;;;15.00;7.10;;;;;;;17.96;67.87;91844.19;5007403;28;20041;-78
2022/05/24 08:23:04;;;;;;;21.88;7.70;;;;;;;18.01;68.78;91849.22;5001292;28;20030;-77
2022/05/24 08:25:30;;;;;;;16.95;7.07;;;;;;;17.79;68.88;91855.16;5002939;28;20038;-77
2022/05/24 08:27:58;;;;;;;15.35;7.90;;;;;;;17.84;68.72;91847.72;4978758;28;20408;-77
2022/05/24 08:30:25;;;;;;;18.15;7.30;;;;;;;17.82;68.43;91843.88;4998370;28;20038;-77
2022/05/24 08:32:50;;;;;;;17.83;7.03;;;;;;;17.85;68.94;91853.78;4983090;28;20026;-77
2022/05/24 08:35:19;;;;;;;15.68;6.65;;;;;;;17.91;68.38;91856.94;4954915;28;20400;-77
2022/05/24 08:37:45;;;;;;;17.33;6.80;;;;;;;18.04;68.10;91845.88;4994798;28;20052;-77
2022/05/24 08:40:14;;;;;;;19.83;6.70;;;;;;;18.20;66.95;91855.63;4979013;28;20046;-78
2022/05/24 08:43:13;;;;;;;12.15;6.50;;;;;;;17.99;66.37;91858.59;4980071;28;20031;-77
2022/05/24 08:48:54;;;;;;;17.23;7.05;;;;;;;17.95;64.00;91850.59;5011300;28;20450;-77
2022/05/24 08:51:28;;;;;;;21.30;7.75;;;;;;;17.95;68.29;91850.59;4995935;28;20454;-77
2022/05/24 08:54:00;;;;;;;17.52;7.90;;;;;;;17.82;69.03;91852.59;5011557;28;20444;-78
2022/05/24 08:56:31;;;;;;;22.17;8.35;;;;;;;17.91;68.71;91856.94;4987664;28;20400;-78
2022/05/24 08:59:15;;;;;;;18.70;9.13;;;;;;;17.87;67.79;91854.19;5012460;28;20029;-78
2022/05/24 09:01:41;;;;;;;21.70;8.18;;;;;;;17.78;67.55;91850.94;4992058;28;20029;-77
2022/05/24 09:04:10;;;;;;;25.10;8.38;;;;;;;17.93;66.90;91860.00;4994835;28;20022;-76
2022/05/24 09:06:46;;;;;;;15.25;7.18;;;;;;;17.87;68.14;91849.66;4993287;28;20035;-76
2022/05/24 09:09:34;;;;;;;16.45;7.70;;;;;;;17.87;67.03;91854.97;4974734;28;20092;-76
2022/05/24 09:12:16;;;;;;;14.45;6.60;;;;;;;17.89;67.60;91857.28;4992160;28;20134;-76
2022/05/24 09:14:57;;;;;;;17.08;6.70;;;;;;;17.89;68.65;91865.97;4992135;28;20041;-76
2022/05/24 09:17:30;;;;;;;17.48;8.25;;;;;;;17.94;65.57;91864.94;5006067;28;20036;-76
2022/05/24 09:19:56;;;;;;;20.05;8.10;;;;;;;17.75;66.63;91864.88;5011417;28;20060;-76
2022/05/24 09:22:22;;;;;;;17.98;8.23;;;;;;;17.77;65.62;91862.66;4990265;28;20023;-77
2022/05/24 09:24:56;;;;;;;19.67;9.30;;;;;;;17.88;66.27;91875.03;4990928;28;20048;-77
2022/05/24 09:27:25;;;;;;;19.40;8.60;;;;;;;17.88;67.89;91858.41;5002222;28;20530;-77
2022/05/24 09:30:26;;;;;;;20.50;8.88;;;;;;;17.85;67.24;91859.81;5011279;28;20419;-78
2022/05/24 09:32:52;;;;;;;14.73;8.25;;;;;;;18.04;66.88;91861.00;5011058;28;20125;-76
2022/05/24 09:35:21;;;;;;;19.90;9.55;;;;;;;17.87;67.36;91864.78;4993629;28;20117;-76
2022/05/24 09:38:14;;;;;;;25.27;8.93;;;;;;;17.70;66.99;91868.56;4998516;28;20053;-76
2022/05/24 09:40:49;;;;;;;21.38;8.27;;;;;;;17.63;68.74;91863.88;4977557;28;20507;-76
2022/05/24 09:43:26;;;;;;;17.25;8.50;;;;;;;17.63;68.61;91866.53;4977295;28;20038;-76
2022/05/24 09:46:18;;;;;;;22.10;8.25;;;;;;;17.67;68.49;91869.25;4995647;28;20041;-76
2022/05/24 09:48:56;;;;;;;14.18;7.13;;;;;;;17.69;69.41;91867.78;4993909;28;20054;-77
2022/05/24 09:51:42;;;;;;;17.27;8.93;;;;;;;17.79;71.57;91865.75;5014893;28;20040;-76
2022/05/24 09:54:28;;;;;;;21.83;8.75;;;;;;;17.71;73.04;91872.75;5013875;28;20038;-81
2022/05/24 09:57:11;;;;;;;22.00;8.75;;;;;;;17.65;73.86;91872.25;4995715;28;20526;-76
2022/05/24 09:59:40;;;;;;;18.23;9.88;;;;;;;17.66;73.28;91865.84;4983279;28;20382;-76
2022/05/24 10:02:27;;;;;;;18.60;9.93;;;;;;;17.69;74.23;91867.78;5009723;28;20029;-79
2022/05/24 10:04:52;;;;;;;17.65;10.38;;;;;;;17.74;72.77;91863.34;4996740;28;20034;-79
2022/05/24 10:07:34;;;;;;;23.73;11.20;;;;;;;17.79;76.11;91860.44;5014702;28;20046;-78
2022/05/24 10:10:12;;;;;;;21.40;9.73;;;;;;;17.98;75.04;91863.13;5012739;28;20033;-79
2022/05/24 10:13:05;;;;;;;28.50;10.77;;;;;;;18.21;74.26;91857.91;4995582;28;20022;-76
2022/05/24 10:15:46;;;;;;;19.98;10.30;;;;;;;18.40;72.17;91870.41;5014132;28;20126;-77
2022/05/24 10:18:28;;;;;;;29.35;11.35;;;;;;;18.51;70.94;91863.44;5008737;28;20061;-79
2022/05/24 10:21:02;;;;;;;19.87;10.00;;;;;;;18.67;70.33;91870.53;5004277;28;20029;-77
2022/05/24 10:23:51;;;;;;;21.17;10.35;;;;;;;18.84;69.36;91861.41;4997208;28;20030;-77
2022/05/24 10:26:26;;;;;;;34.95;11.77;;;;;;;19.05;67.68;91859.13;4965474;28;20156;-76
2022/05/24 10:29:29;;;;;;;28.73;12.27;;;;;;;19.24;65.97;91868.91;5009524;28;20045;-76
2022/05/24 10:32:02;;;;;;;30.00;14.77;;;;;;;19.02;67.23;91867.78;4976383;28;20120;-77
2022/05/24 10:41:02;;;;;;;;;;;;;;;18.68;69.72;91864.88;4981447;28;20069;-76
2022/05/24 10:43:40;;;;;;;31.67;15.38;;;;;;;18.47;71.08;91867.91;4982065;28;20372;-76
2022/05/24 10:46:20;;;;;;;35.42;14.57;;;;;;;18.42;70.79;91870.06;4984037;28;20049;-76
2022/05/24 10:48:54;;;;;;;29.70;14.02;;;;;;;18.39;70.73;91871.53;4990794;28;20086;-77
2022/05/24 10:51:39;;;;;;;28.25;14.20;;;;;;;18.21;70.96;91863.22;4989105;28;20045;-76
2022/05/24 10:54:16;;;;;;;39.92;17.25;;;;;;;18.29;70.64;91858.84;4990663;28;20409;-76
2022/05/24 10:56:59;;;;;;;29.60;15.95;;;;;;;18.40;69.90;91867.78;4990558;28;20121;-76
2022/05/24 10:59:44;;;;;;;27.67;12.85;;;;;;;18.57;72.45;91865.78;4991678;28;20042;-76
2022/05/24 11:02:31;;;;;;;35.78;13.57;;;;;;;18.49;71.29;91855.06;4994140;28;20084;-77
2022/05/24 11:05:09;;;;;;;34.20;13.48;;;;;;;18.57;71.63;91855.19;4994860;28;20030;-80
2022/05/24 11:07:37;;;;;;;25.17;13.23;;;;;;;18.55;71.36;91862.72;4961174;28;20039;-79
2022/05/24 11:10:21;;;;;;;35.80;16.77;;;;;;;18.31;70.39;91859.25;4977928;28;20122;-80
2022/05/24 11:12:49;;;;;;;24.90;12.32;;;;;;;18.82;71.95;91850.38;4995181;28;20039;-80
2022/05/24 11:15:23;;;;;;;35.95;13.70;;;;;;;18.85;71.66;91850.44;4995053;28;20026;-80
2022/05/24 11:17:49;;;;;;;32.78;13.27;;;;;;;19.07;70.49;91851.59;4994922;28;20117;-80
2022/05/24 11:20:22;;;;;;;30.75;13.82;;;;;;;19.08;69.32;91852.34;4992801;28;20125;-80
2022/05/24 11:23:15;;;;;;;22.50;11.38;;;;;;;19.06;69.32;91843.97;4988455;28;20089;-78
2022/05/24 11:25:49;;;;;;;31.27;12.85;;;;;;;18.87;70.30;91853.50;4991847;28;20038;-79
2022/05/24 11:28:33;;;;;;;35.60;14.38;;;;;;;18.67;69.90;91850.09;4992760;28;20065;-79
2022/05/24 11:31:36;;;;;;;30.95;15.98;;;;;;;18.74;70.59;91844.16;4987956;28;20062;-79
2022/05/24 11:34:11;;;;;;;32.78;16.20;;;;;;;18.71;70.60;91839.53;4992222;28;20206;-78
2022/05/24 11:36:38;;;;;;;31.98;14.23;;;;;;;18.66;70.87;91829.22;4984271;28;20031;-77
2022/05/24 11:39:13;;;;;;;24.02;12.65;;;;;;;18.96;71.05;91829.41;5006549;28;20038;-79
2022/05/24 11:41:39;;;;;;;30.45;12.18;;;;;;;18.86;71.58;91824.69;5004957;28;20034;-76
2022/05/24 11:44:28;;;;;;;22.92;11.45;;;;;;;19.02;70.68;91829.88;4978626;28;20092;-76
2022/05/24 11:46:55;;;;;;;25.52;13.77;;;;;;;19.00;70.56;91829.47;5012222;28;20033;-76
2022/05/24 11:49:24;;;;;;;38.00;16.70;;;;;;;19.08;69.61;91831.13;5010299;28;20045;-76
2022/05/24 11:51:58;;;;;;;35.75;13.40;;;;;;;19.37;69.01;91820.97;5012344;28;20496;-76
2022/05/24 11:54:23;;;;;;;26.10;12.65;;;;;;;19.32;68.52;91820.13;5011943;28;20126;-76
2022/05/24 11:57:16;;;;;;;40.20;16.05;;;;;;;19.23;68.40;91816.97;5010247;28;20626;-76
2022/05/24 11:59:48;;;;;;;48.67;15.98;;;;;;;19.11;69.28;91814.50;5007807;28;20527;-77
2022/05/24 12:02:20;;;;;;;31.05;14.00;;;;;;;19.27;69.90;91801.88;4993473;28;20041;-76
2022/05/24 12:08:07;;;;;;;29.05;15.23;;;;;;;19.08;70.20;91796.63;5011098;28;20096;-76
2022/05/24 12:10:41;;;;;;;38.65;16.38;;;;;;;19.20;70.42;91796.44;5000199;28;20388;-76
2022/05/24 12:13:25;;;;;;;31.20;15.85;;;;;;;19.10;69.28;91805.00;5003509;28;20076;-76
2022/05/24 12:15:55;;;;;;;52.38;16.45;;;;;;;18.72;70.19;91804.72;4994226;28;20037;-76
2022/05/24 12:18:34;;;;;;;35.22;13.23;;;;;;;18.55;71.88;91807.06;4994169;28;20034;-76
2022/05/24 12:21:00;;;;;;;30.58;14.65;;;;;;;18.40;72.41;91812.13;4994339;28;20116;-76
2022/05/24 12:23:28;;;;;;;31.25;13.95;;;;;;;18.23;73.70;91823.16;5009892;28;20532;-76
2022/05/24 12:26:01;;;;;;;29.30;13.73;;;;;;;18.23;75.32;91825.78;5011568;28;20030;-76
2022/05/24 12:28:43;;;;;;;33.22;14.73;;;;;;;18.24;76.88;91827.34;4994001;28;20117;-76